Flight Track Log - Related Links

Times and Time Zones

All times are in EDT time to prevent confusion due to time zone crossing. See the WBR2625 flight status page for this flight to view local times or setup timezone preferences in your user account.

Time Position Orientation Groundspeed Altitude Reporting Facility
EDT Latitude Longitude Course Direction KTS MPH feet Rate Location/Type
Fri 08:00:46 PM 41.9500 -87.9167 270° West 85 98 1,900  Level Chicago TRACON
Fri 08:01:40 PM 41.9500 -87.9500 270° West 90 104 2,700 1,000 Climbing Chicago TRACON
Fri 08:02:46 PM 41.9333 -87.9833 236° Southwest 105 121 3,900 898 Climbing Chicago TRACON
Fri 08:03:47 PM 41.9167 -88.0167 236° Southwest 118 136 4,600 835 Climbing Chicago TRACON
Fri 08:04:41 PM 41.9000 -88.0500 236° Southwest 124 143 5,500 750 Climbing Chicago TRACON
Fri 08:05:47 PM 41.9000 -88.1000 270° West 138 159 6,100 300 Climbing Chicago TRACON
Fri 08:06:00 PM 41.9667 -88.2362 270° West  Level FlightAware Approximate
Fri 08:06:41 PM 41.9000 -88.1500 270° West 151 174 6,100  Level Chicago TRACON
Fri 08:07:17 PM 41.9003 -88.1792 271° West 147 169 6,100 433 Level Chicago Center
Fri 08:08:18 PM 41.9003 -88.2353 270° West 152 175 6,800 878 Climbing Chicago Center
Fri 08:09:20 PM 41.9006 -88.2944 270° West 139 160 7,900 634 Climbing Chicago Center
Fri 08:10:21 PM 41.9033 -88.3453 274° West 136 157 8,100 98 Climbing Chicago Center
Fri 08:11:23 PM 41.9014 -88.4017 267° West 148 170 8,100  Level Chicago Center
Fri 08:12:24 PM 41.9019 -88.4597 271° West 154 177 8,100  Level Chicago Center
Fri 08:13:25 PM 41.9000 -88.5153 267° West 153 176 8,100 -49 Level Chicago Center
Fri 08:14:27 PM 41.8986 -88.5722 268° West 153 176 8,000 -49 Descending Chicago Center
Fri 08:15:28 PM 41.9017 -88.6392 274° West 151 174 8,000  Level Chicago Center
Fri 08:16:29 PM 41.9044 -88.6961 274° West 153 176 8,000  Level Chicago Center
Fri 08:17:31 PM 41.9008 -88.7522 265° West 153 176 8,000 49 Level Chicago Center
Fri 08:18:32 PM 41.9006 -88.8069 270° West 150 173 8,100  Climbing Chicago Center
Fri 08:20:00 PM 41.8683 -88.8765 235° Southwest  Level Estimated
Fri 08:20:35 PM 41.8589 -88.9019 235° Southwest 151 174 8,000  Level Chicago Center
Fri 08:21:37 PM 41.8381 -88.9500 240° Southwest 150 173 8,000  Level Chicago Center
Fri 08:22:38 PM 41.8139 -89.0075 241° Southwest 149 171 8,000 49 Level Chicago Center
Fri 08:23:39 PM 41.7919 -89.0542 238° Southwest 150 173 8,100  Climbing Chicago Center
Fri 08:24:41 PM 41.7697 -89.1017 238° Southwest 151 174 8,000 -49 Descending Chicago Center
Fri 08:25:42 PM 41.7475 -89.1475 237° Southwest 150 173 8,000  Level Chicago Center
Fri 08:26:43 PM 41.7269 -89.1953 240° Southwest 150 173 8,000 49 Level Chicago Center
Fri 08:27:45 PM 41.7081 -89.2442 243° Southwest 150 173 8,100 49 Climbing Chicago Center
Fri 08:28:46 PM 41.6900 -89.2925 243° Southwest 149 171 8,100  Level Chicago Center
Fri 08:29:47 PM 41.6644 -89.3506 240° Southwest 153 176 8,100 -49 Level Chicago Center
Fri 08:30:49 PM 41.6414 -89.3967 236° Southwest 151 174 8,000  Descending Chicago Center
Fri 08:31:50 PM 41.6211 -89.4453 241° Southwest 150 173 8,100 49 Climbing Chicago Center
Fri 08:32:51 PM 41.5969 -89.4922 235° Southwest 152 175 8,100  Level Chicago Center
Fri 08:33:53 PM 41.5742 -89.5386 237° Southwest 153 176 8,100  Level Chicago Center
Fri 08:34:54 PM 41.5514 -89.5842 236° Southwest 152 175 8,100  Level Chicago Center
Fri 08:35:55 PM 41.5281 -89.6300 236° Southwest 151 174 8,100  Level Chicago Center
Fri 08:36:57 PM 41.4981 -89.6869 235° Southwest 156 180 8,100  Level Chicago Center
Fri 08:37:58 PM 41.4750 -89.7342 237° Southwest 153 176 8,100  Level Chicago Center
Fri 08:38:59 PM 41.4511 -89.7794 235° Southwest 150 173 8,100  Level Chicago Center
Fri 08:40:01 PM 41.4286 -89.8264 237° Southwest 151 174 8,100  Level Chicago Center
Fri 08:41:02 PM 41.4069 -89.8719 238° Southwest 148 170 8,100  Level Chicago Center
Fri 08:42:03 PM 41.3836 -89.9178 236° Southwest 150 173 8,100  Level Chicago Center
Fri 08:43:05 PM 41.3639 -89.9656 241° Southwest 149 171 8,100  Level Chicago Center
Fri 08:44:06 PM 41.3408 -90.0131 237° Southwest 150 173 8,100  Level Chicago Center
Fri 08:45:07 PM 41.3186 -90.0575 236° Southwest 147 169 8,100  Level Chicago Center
Fri 08:46:09 PM 41.2919 -90.1133 238° Southwest 150 173 8,100  Level Chicago Center
Fri 08:47:10 PM 41.2694 -90.1589 237° Southwest 148 170 8,100  Level Chicago Center
Fri 08:48:12 PM 41.2464 -90.2047 236° Southwest 149 171 8,100  Level Chicago Center
Fri 08:49:13 PM 41.2222 -90.2517 236° Southwest 153 176 8,100  Level Chicago Center
Fri 08:50:15 PM 41.2000 -90.2964 237° Southwest 147 169 8,100  Level Chicago Center
Fri 08:51:16 PM 41.1794 -90.3444 240° Southwest 149 171 8,100  Level Chicago Center
Fri 08:52:18 PM 41.1606 -90.3917 242° Southwest 146 168 8,100  Level Chicago Center
Fri 08:53:19 PM 41.1358 -90.4356 233° Southwest 148 170 8,100  Level Chicago Center
Fri 08:54:21 PM 41.1064 -90.4900 234° Southwest 151 174 8,100 -49 Level Chicago Center
Fri 08:55:22 PM 41.0853 -90.5378 240° Southwest 151 174 8,000 -98 Descending Chicago Center
Fri 08:56:24 PM 41.0658 -90.5839 241° Southwest 144 166 7,900 -341 Descending Chicago Center
Fri 08:57:25 PM 41.0414 -90.6286 234° Southwest 150 173 7,300 -585 Descending Chicago Center
Fri 08:58:27 PM 41.0128 -90.6672 226° Southwest 148 170 6,700 -585 Descending Chicago Center
Fri 08:59:28 PM 40.9878 -90.7100 232° Southwest 146 168 6,100 -585 Descending Chicago Center
Fri 09:00:30 PM 40.9681 -90.7583 242° Southwest 148 170 5,500 -629 Descending Chicago Center
Fri 09:01:32 PM 40.9481 -90.8069 241° Southwest 150 173 4,800 -683 Descending Chicago Center
Fri 09:02:33 PM 40.9253 -90.8639 242° Southwest 147 169 4,100 -585 Descending Chicago Center
Fri 09:03:35 PM 40.9094 -90.9128 247° West 148 170 3,600 -488 Descending Chicago Center
Fri 09:04:36 PM 40.8931 -90.9628 247° West 148 170 3,100 -390 Descending Chicago Center
Fri 09:05:38 PM 40.8803 -91.0119 251° West 146 168 2,800 -293 Descending Chicago Center
Fri 09:06:39 PM 40.8636 -91.0594 245° Southwest 143 165 2,500 -244 Descending Chicago Center
Fri 09:07:41 PM 40.8478 -91.1042 245° Southwest 143 165 2,300 -194 Descending Chicago Center
Fri 09:09:00 PM 40.7956 -91.1214 217° Southwest  Level Estimated

Login

Don't have an account? Register now (free) for customized features, flight alerts, and more!